createdAt,value
2019-05-25T00:01:59.737Z,90.67
2019-05-25T00:04:28.702Z,90.74
2019-05-25T00:06:57.581Z,91.31
2019-05-25T00:09:26.308Z,91.90
2019-05-25T00:11:55.033Z,92.21
2019-05-25T00:14:24.065Z,92.92
2019-05-25T00:16:52.787Z,93.45
2019-05-25T00:19:21.512Z,92.91
2019-05-25T00:21:51.288Z,92.96
2019-05-25T00:24:20.026Z,93.19
2019-05-25T00:26:48.758Z,93.17
2019-05-25T00:29:17.542Z,93.09
2019-05-25T00:31:46.622Z,93.40
2019-05-25T00:34:15.343Z,93.49
2019-05-25T00:36:44.232Z,93.17
2019-05-25T00:39:12.955Z,93.79
2019-05-25T00:41:41.681Z,94.50
2019-05-25T00:44:10.659Z,94.93
2019-05-25T00:46:39.387Z,95.32
2019-05-25T00:49:08.115Z,95.72
2019-05-25T00:51:36.997Z,96.31
2019-05-25T00:54:05.724Z,96.94
2019-05-25T00:56:34.449Z,97.51
2019-05-25T00:59:03.216Z,98.03
2019-05-25T01:01:32.051Z,98.28
2019-05-25T01:04:00.777Z,98.67
2019-05-25T01:06:29.794Z,99.03
2019-05-25T01:08:58.515Z,99.27
2019-05-25T01:11:27.237Z,99.03
2019-05-25T01:13:56.201Z,98.86
2019-05-25T01:16:24.920Z,98.55
2019-05-25T01:18:53.648Z,98.31
2019-05-25T01:21:22.415Z,98.06
2019-05-25T01:23:51.144Z,97.75
2019-05-25T01:26:19.869Z,97.13
2019-05-25T01:28:48.646Z,96.96
2019-05-25T01:31:17.381Z,96.88
2019-05-25T01:33:46.096Z,97.26
2019-05-25T01:36:14.958Z,97.50
2019-05-25T01:38:43.691Z,97.51
2019-05-25T01:41:12.496Z,97.58
2019-05-25T01:43:41.260Z,97.95
2019-05-25T01:46:09.995Z,98.29
2019-05-25T01:48:38.724Z,98.88
2019-05-25T01:51:07.520Z,98.74
2019-05-25T01:53:36.247Z,99.15
2019-05-25T01:56:04.970Z,99.46
2019-05-25T01:58:33.761Z,99.38
2019-05-25T02:01:02.480Z,99.48
2019-05-25T02:03:31.207Z,99.77
2019-05-25T02:06:00.054Z,99.97
2019-05-25T02:08:28.842Z,100.00
2019-05-25T02:10:57.658Z,100.00
2019-05-25T02:13:26.703Z,99.98
2019-05-25T02:15:55.430Z,98.98
2019-05-25T02:18:24.162Z,98.74
2019-05-25T02:20:53.152Z,98.66
2019-05-25T02:23:21.977Z,99.09
2019-05-25T02:25:50.705Z,99.15
2019-05-25T02:28:19.563Z,99.29
2019-05-25T02:30:48.288Z,99.48
2019-05-25T02:33:17.038Z,99.16
2019-05-25T02:35:45.820Z,98.58
2019-05-25T02:38:14.544Z,98.09
2019-05-25T02:40:43.271Z,97.49
2019-05-25T02:43:12.250Z,96.70
2019-05-25T02:45:41.074Z,96.35
2019-05-25T02:48:09.809Z,96.07
2019-05-25T02:50:38.671Z,95.72
2019-05-25T02:53:07.405Z,95.77
2019-05-25T02:55:36.123Z,95.53
2019-05-25T02:58:04.986Z,95.68
2019-05-25T03:00:35.217Z,95.41
2019-05-25T03:03:05.687Z,95.36
2019-05-25T03:05:34.529Z,95.26
2019-05-25T03:08:03.323Z,95.53
2019-05-25T03:10:32.718Z,95.92
2019-05-25T03:13:03.093Z,96.15
2019-05-25T03:15:31.925Z,95.95
2019-05-25T03:18:00.872Z,96.19
2019-05-25T03:20:29.746Z,96.22
2019-05-25T03:22:58.474Z,96.51
2019-05-25T03:25:27.199Z,96.86
2019-05-25T03:27:55.984Z,97.17
2019-05-25T03:30:30.647Z,96.95
2019-05-25T03:32:59.382Z,96.68
2019-05-25T03:35:28.142Z,96.16
2019-05-25T03:37:56.982Z,95.85
2019-05-25T03:40:25.820Z,95.89
2019-05-25T03:42:54.706Z,95.56
2019-05-25T03:45:23.434Z,95.30
2019-05-25T03:47:52.173Z,94.76
2019-05-25T03:50:22.617Z,94.11
2019-05-25T03:52:51.344Z,93.39
2019-05-25T03:55:20.070Z,92.88
2019-05-25T03:57:48.934Z,92.46
2019-05-25T04:00:20.579Z,91.80
2019-05-25T04:02:49.300Z,91.35
2019-05-25T04:05:18.064Z,91.34
2019-05-25T04:07:46.785Z,91.32
2019-05-25T04:10:15.507Z,91.41
2019-05-25T04:12:44.369Z,91.18
2019-05-25T04:15:13.087Z,90.53
2019-05-25T04:17:41.809Z,90.25
2019-05-25T04:20:10.981Z,89.75
2019-05-25T04:22:39.699Z,89.52
2019-05-25T04:25:08.419Z,89.20
2019-05-25T04:27:37.305Z,89.32
2019-05-25T04:30:07.149Z,88.84
2019-05-25T04:32:35.864Z,89.22
2019-05-25T04:35:06.443Z,88.63
2019-05-25T04:37:35.172Z,87.49
2019-05-25T04:40:05.507Z,88.19
2019-05-25T04:42:34.374Z,87.83
2019-05-25T04:45:03.195Z,88.09
2019-05-25T04:47:31.956Z,88.26
2019-05-25T04:50:00.689Z,88.22
2019-05-25T04:52:29.416Z,87.06
2019-05-25T04:54:58.151Z,88.13
2019-05-25T04:57:26.907Z,87.05
2019-05-25T04:59:55.629Z,86.19
2019-05-25T05:02:24.356Z,82.95
2019-05-25T05:04:53.100Z,78.54
2019-05-25T05:07:21.819Z,77.23
2019-05-25T05:10:02.137Z,75.04
2019-05-25T05:12:21.060Z,72.55
2019-05-25T05:14:49.821Z,73.31
2019-05-25T05:17:18.548Z,72.18
2019-05-25T05:19:47.420Z,72.78
2019-05-25T05:22:16.133Z,72.19
2019-05-25T05:24:45.177Z,72.07
2019-05-25T05:27:14.095Z,71.57
2019-05-25T05:29:42.816Z,71.22
2019-05-25T05:32:24.909Z,69.75
2019-05-25T05:34:42.044Z,69.42
2019-05-25T05:37:11.562Z,67.41
2019-05-25T05:39:42.083Z,67.33
2019-05-25T05:42:14.414Z,66.94
2019-05-25T05:44:45.673Z,65.32
2019-05-25T05:47:16.797Z,67.62
2019-05-25T05:49:47.453Z,67.87
2019-05-25T05:52:18.140Z,66.39
2019-05-25T05:54:48.706Z,64.77
2019-05-25T05:57:17.568Z,63.94
2019-05-25T05:59:46.287Z,64.00
2019-05-25T06:02:15.014Z,64.60
2019-05-25T06:04:43.827Z,65.93
2019-05-25T06:07:12.543Z,65.07
2019-05-25T06:09:41.267Z,65.85
2019-05-25T06:12:10.117Z,64.12
2019-05-25T06:14:38.835Z,65.07
2019-05-25T06:17:07.555Z,65.43
2019-05-25T06:19:36.305Z,64.37
2019-05-25T06:22:05.040Z,63.71
2019-05-25T06:24:33.753Z,62.94
2019-05-25T06:27:02.609Z,62.11
2019-05-25T06:29:31.325Z,63.20
2019-05-25T06:32:00.054Z,61.52
2019-05-25T06:34:28.805Z,60.13
2019-05-25T06:36:57.621Z,59.80
2019-05-25T06:39:26.311Z,61.62
2019-05-25T06:41:55.096Z,58.60
2019-05-25T06:44:23.813Z,59.46
2019-05-25T06:46:52.530Z,60.20
2019-05-25T06:49:21.287Z,62.53
2019-05-25T06:51:50.017Z,60.93
2019-05-25T06:54:18.744Z,57.67
2019-05-25T06:56:47.616Z,58.34
2019-05-25T06:59:16.343Z,56.82
2019-05-25T07:01:45.255Z,57.31
2019-05-25T07:04:14.136Z,57.11
2019-05-25T07:06:42.860Z,56.33
2019-05-25T07:09:11.580Z,55.47
2019-05-25T07:11:40.508Z,55.06
2019-05-25T07:14:10.136Z,54.22
2019-05-25T07:16:38.850Z,53.22
2019-05-25T07:19:07.827Z,53.69
2019-05-25T07:21:36.549Z,52.44
2019-05-25T07:24:05.464Z,52.40
2019-05-25T07:26:34.321Z,51.02
2019-05-25T07:29:03.033Z,51.29
2019-05-25T07:31:31.763Z,51.93
2019-05-25T07:34:00.608Z,51.70
2019-05-25T07:36:29.331Z,51.42
2019-05-25T07:38:58.065Z,49.87
2019-05-25T07:41:27.503Z,50.57
2019-05-25T07:43:56.229Z,48.04
2019-05-25T07:46:24.950Z,46.39
2019-05-25T07:48:53.710Z,48.02
2019-05-25T07:51:22.430Z,47.33
2019-05-25T07:53:51.154Z,47.73
2019-05-25T07:56:20.126Z,48.41
2019-05-25T07:58:48.858Z,47.61
2019-05-25T08:01:17.579Z,47.61
2019-05-25T08:03:46.489Z,46.52
2019-05-25T08:06:15.189Z,46.66
2019-05-25T08:08:51.087Z,47.32
2019-05-25T08:11:19.803Z,48.05
2019-05-25T08:13:48.527Z,45.44
2019-05-25T08:16:17.290Z,46.03
2019-05-25T08:18:46.023Z,45.37
2019-05-25T08:21:14.798Z,47.39
2019-05-25T08:23:43.675Z,46.65
2019-05-25T08:26:12.417Z,45.36
2019-05-25T08:28:41.130Z,45.82
2019-05-25T08:31:09.941Z,45.86
2019-05-25T08:33:38.663Z,45.14
2019-05-25T08:36:07.395Z,44.62
2019-05-25T08:38:36.211Z,46.65
2019-05-25T08:41:04.932Z,43.89
2019-05-25T08:43:33.654Z,41.94
2019-05-25T08:46:02.499Z,41.73
2019-05-25T08:48:31.224Z,44.15
2019-05-25T08:50:59.961Z,45.63
2019-05-25T08:53:40.774Z,41.22
2019-05-25T08:56:00.367Z,44.38
2019-05-25T08:58:29.093Z,40.10
2019-05-25T09:00:57.849Z,39.23
2019-05-25T09:03:26.581Z,39.79
2019-05-25T09:05:55.297Z,39.45
2019-05-25T09:08:24.114Z,41.49
2019-05-25T09:10:52.845Z,39.44
2019-05-25T09:13:21.564Z,40.18
2019-05-25T09:15:50.433Z,35.34
2019-05-25T09:18:19.155Z,36.89
2019-05-25T09:20:47.872Z,36.24
2019-05-25T09:23:16.765Z,39.83
2019-05-25T09:25:45.780Z,38.72
2019-05-25T09:28:14.505Z,37.51
2019-05-25T09:30:43.384Z,37.81
2019-05-25T09:33:12.111Z,37.86
2019-05-25T09:35:40.821Z,35.80
2019-05-25T09:38:09.862Z,37.54
2019-05-25T09:40:38.588Z,39.58
2019-05-25T09:43:07.300Z,42.50
2019-05-25T09:45:36.066Z,41.52
2019-05-25T09:48:04.782Z,39.40
2019-05-25T09:50:33.495Z,40.43
2019-05-25T09:53:02.301Z,41.49
2019-05-25T09:55:31.043Z,41.77
2019-05-25T09:57:59.754Z,44.41
2019-05-25T10:00:29.038Z,42.63
2019-05-25T10:02:57.760Z,40.39
2019-05-25T10:05:26.501Z,41.70
2019-05-25T10:07:55.360Z,42.34
2019-05-25T10:10:24.477Z,42.59
2019-05-25T10:12:53.205Z,40.56
2019-05-25T10:15:22.184Z,40.56
2019-05-25T10:17:50.938Z,41.16
2019-05-25T10:20:19.758Z,42.66
2019-05-25T10:25:50.198Z,39.28
2019-05-25T10:28:18.986Z,38.09
2019-05-25T10:30:47.702Z,41.18
2019-05-25T10:33:43.712Z,38.73
2019-05-25T10:36:13.004Z,37.49
2019-05-25T10:38:41.730Z,36.33
2019-05-25T10:41:10.600Z,37.28
2019-05-25T10:43:39.319Z,39.51
2019-05-25T10:46:08.046Z,38.72
2019-05-25T10:48:36.849Z,41.44
2019-05-25T10:51:06.884Z,40.13
2019-05-25T10:53:35.559Z,40.52
2019-05-25T10:56:04.562Z,41.20
2019-05-25T10:58:33.327Z,42.17
2019-05-25T11:01:02.042Z,38.92
2019-05-25T11:03:30.901Z,39.63
2019-05-25T11:05:59.616Z,39.21
2019-05-25T11:08:29.908Z,38.81
2019-05-25T11:10:58.774Z,37.88
2019-05-25T11:13:27.490Z,38.45
2019-05-25T11:15:58.736Z,39.93
2019-05-25T11:18:27.503Z,41.62
2019-05-25T11:20:56.216Z,42.08
2019-05-25T11:23:24.939Z,45.06
2019-05-25T11:25:56.780Z,47.67
2019-05-25T11:28:25.582Z,50.24
2019-05-25T11:30:54.293Z,50.24
2019-05-25T11:33:23.165Z,51.47
2019-05-25T11:35:51.886Z,51.73
2019-05-25T11:38:20.607Z,53.51
2019-05-25T11:40:50.672Z,52.88
2019-05-25T11:43:19.384Z,49.35
2019-05-25T11:45:48.113Z,45.44
2019-05-25T11:48:18.039Z,47.59
2019-05-25T11:50:46.761Z,43.10
2019-05-25T11:53:15.479Z,42.16
2019-05-25T11:55:44.243Z,42.16
2019-05-25T11:58:12.963Z,38.16
2019-05-25T12:00:41.670Z,39.90
2019-05-25T12:03:10.443Z,41.37
2019-05-25T12:05:39.167Z,36.08
2019-05-25T12:08:07.952Z,35.25
2019-05-25T12:10:36.716Z,35.32
2019-05-25T12:13:05.437Z,38.32
2019-05-25T12:15:34.267Z,38.96
2019-05-25T12:18:03.324Z,39.81
2019-05-25T12:20:32.047Z,36.11
2019-05-25T12:23:00.903Z,36.59
2019-05-25T12:25:29.910Z,36.35
2019-05-25T12:27:58.660Z,36.40
2019-05-25T12:30:39.755Z,33.29
2019-05-25T12:32:58.031Z,33.05
2019-05-25T12:35:26.753Z,36.81
2019-05-25T12:37:55.486Z,35.48
2019-05-25T12:40:24.442Z,36.87
2019-05-25T12:42:53.167Z,36.30
2019-05-25T12:45:24.288Z,47.62
2019-05-25T12:47:53.958Z,56.14
2019-05-25T12:50:22.882Z,57.52
2019-05-25T12:52:51.594Z,55.34
2019-05-25T12:55:20.348Z,52.89
2019-05-25T12:57:51.395Z,53.85
2019-05-25T13:00:19.510Z,48.42
2019-05-25T13:02:48.264Z,47.45
2019-05-25T13:05:16.986Z,46.71
2019-05-25T13:07:45.719Z,45.50
2019-05-25T13:10:15.008Z,39.43
2019-05-25T13:12:43.724Z,43.26
2019-05-25T13:15:16.052Z,37.56
2019-05-25T13:17:44.891Z,36.01
2019-05-25T13:20:14.804Z,34.66
2019-05-25T13:22:43.531Z,34.27
2019-05-25T13:25:13.590Z,33.27
2019-05-25T13:27:42.306Z,34.73
2019-05-25T13:30:11.617Z,32.61
2019-05-25T13:32:40.589Z,31.22
2019-05-25T13:35:09.603Z,32.73
2019-05-25T13:37:38.425Z,34.37
2019-05-25T13:40:07.593Z,34.72
2019-05-25T13:42:36.322Z,35.48
2019-05-25T13:45:10.895Z,35.76
2019-05-25T13:47:39.760Z,35.67
2019-05-25T13:50:09.688Z,35.98
2019-05-25T13:52:38.431Z,38.10
2019-05-25T13:55:07.698Z,38.39
2019-05-25T13:57:36.413Z,37.17
2019-05-25T14:00:07.394Z,38.34
2019-05-25T14:02:36.267Z,39.18
2019-05-25T14:05:06.785Z,38.17
2019-05-25T14:07:35.495Z,39.09
2019-05-25T14:10:06.311Z,39.16
2019-05-25T14:12:36.178Z,38.94
2019-05-25T14:15:07.073Z,37.23
2019-05-25T14:17:36.548Z,35.71
2019-05-25T14:20:07.144Z,35.53
2019-05-25T14:22:35.856Z,35.93
2019-05-25T14:25:06.642Z,36.71
2019-05-25T14:27:35.357Z,38.40
2019-05-25T14:30:05.707Z,36.67
2019-05-25T14:32:34.713Z,34.82
2019-05-25T14:35:03.787Z,33.20
2019-05-25T14:37:32.498Z,33.17
2019-05-25T14:40:01.267Z,35.86
2019-05-25T14:42:29.978Z,36.18
2019-05-25T14:45:03.183Z,37.07
2019-05-25T14:47:33.012Z,37.99
2019-05-25T14:50:01.740Z,38.62
2019-05-25T14:52:30.560Z,40.82
2019-05-25T14:54:59.341Z,38.80
2019-05-25T14:57:28.067Z,40.25
2019-05-25T14:59:56.789Z,40.11
2019-05-25T15:02:25.626Z,39.99
2019-05-25T15:04:54.356Z,40.72
2019-05-25T15:07:23.076Z,41.63
2019-05-25T15:09:51.876Z,39.60
2019-05-25T15:12:21.108Z,39.72
2019-05-25T15:14:49.815Z,42.55
2019-05-25T15:17:18.679Z,38.89
2019-05-25T15:19:47.405Z,37.75
2019-05-25T15:22:16.290Z,39.28
2019-05-25T15:24:45.082Z,39.12
2019-05-25T15:27:13.829Z,38.83
2019-05-25T15:29:42.545Z,38.38
2019-05-25T15:32:20.039Z,38.35
2019-05-25T15:34:42.074Z,37.15
2019-05-25T15:37:10.825Z,37.65
2019-05-25T15:39:39.586Z,37.60
2019-05-25T15:42:08.335Z,38.05
2019-05-25T15:44:37.011Z,37.87
2019-05-25T15:47:05.979Z,37.94
2019-05-25T15:49:34.694Z,39.64
2019-05-25T15:52:03.428Z,40.17
2019-05-25T15:54:32.331Z,39.58
2019-05-25T15:57:01.048Z,39.98
2019-05-25T15:59:29.771Z,39.54
2019-05-25T16:01:58.538Z,40.02
2019-05-25T16:04:27.253Z,39.89
2019-05-25T16:06:55.997Z,41.82
2019-05-25T16:09:24.877Z,41.58
2019-05-25T16:11:53.592Z,41.15
2019-05-25T16:14:22.331Z,42.30
2019-05-25T16:16:51.442Z,42.95
2019-05-25T16:19:20.158Z,42.81
2019-05-25T16:21:48.886Z,41.97
2019-05-25T16:24:17.808Z,41.97
2019-05-25T16:26:46.866Z,43.08
2019-05-25T16:29:15.660Z,44.45
2019-05-25T16:31:44.599Z,42.39
2019-05-25T16:34:13.314Z,43.47
2019-05-25T16:36:42.141Z,44.75
2019-05-25T16:39:11.249Z,43.25
2019-05-25T16:41:39.991Z,43.25
2019-05-25T16:44:08.708Z,44.56
2019-05-25T16:46:37.596Z,45.52
2019-05-25T16:49:06.330Z,45.77
2019-05-25T16:51:35.132Z,46.44
2019-05-25T16:54:03.926Z,46.28
2019-05-25T16:56:32.678Z,47.06
2019-05-25T16:59:01.409Z,47.65
2019-05-25T17:01:46.809Z,48.84
2019-05-25T17:04:00.591Z,50.02
2019-05-25T17:06:29.322Z,48.93
2019-05-25T17:08:58.487Z,50.11
2019-05-25T17:11:27.198Z,50.86
2019-05-25T17:13:55.923Z,51.51
2019-05-25T17:16:24.802Z,51.90
2019-05-25T17:18:53.523Z,52.48
2019-05-25T17:21:22.248Z,53.16
2019-05-25T17:23:51.171Z,53.68
2019-05-25T17:26:19.925Z,54.29
2019-05-25T17:28:48.643Z,55.56
2019-05-25T17:31:17.428Z,55.62
2019-05-25T17:33:46.742Z,58.13
2019-05-25T17:36:15.559Z,59.42
2019-05-25T17:38:44.318Z,59.13
2019-05-25T17:41:13.173Z,59.31
2019-05-25T17:43:41.927Z,59.94
2019-05-25T17:46:10.794Z,60.76
2019-05-25T17:48:39.543Z,60.44
2019-05-25T17:51:08.244Z,60.98
2019-05-25T17:53:37.005Z,62.10
2019-05-25T17:56:05.824Z,61.53
2019-05-25T17:58:34.551Z,61.73
2019-05-25T18:01:03.503Z,62.49
2019-05-25T18:03:32.243Z,61.59
2019-05-25T18:06:00.943Z,61.75
2019-05-25T18:08:29.850Z,61.72
2019-05-25T18:10:58.568Z,62.20
2019-05-25T18:13:29.024Z,62.68
2019-05-25T18:15:57.879Z,63.25
2019-05-25T18:18:26.628Z,63.97
2019-05-25T18:20:55.355Z,64.67
2019-05-25T18:23:24.309Z,66.22
2019-05-25T18:25:53.062Z,66.97
2019-05-25T18:28:21.749Z,67.27
2019-05-25T18:30:50.602Z,66.71
2019-05-25T18:33:19.336Z,66.47
2019-05-25T18:35:48.063Z,66.60
2019-05-25T18:38:17.032Z,67.16
2019-05-25T18:40:45.802Z,67.98
2019-05-25T18:43:14.670Z,68.78
2019-05-25T18:45:43.546Z,69.00
2019-05-25T18:48:12.291Z,69.67
2019-05-25T18:50:41.047Z,70.68
2019-05-25T18:53:09.896Z,71.90
2019-05-25T18:55:38.620Z,72.98
2019-05-25T18:58:07.334Z,73.12
2019-05-25T19:00:36.099Z,72.52
2019-05-25T19:03:04.922Z,72.20
2019-05-25T19:05:33.702Z,72.92
2019-05-25T19:08:02.637Z,72.44
2019-05-25T19:10:31.334Z,72.31
2019-05-25T19:13:00.053Z,73.04
2019-05-25T19:15:29.007Z,74.47
2019-05-25T19:17:57.757Z,75.09
2019-05-25T19:20:26.595Z,75.78
2019-05-25T19:22:55.333Z,76.11
2019-05-25T19:25:24.057Z,76.61
2019-05-25T19:27:52.788Z,77.32
2019-05-25T19:30:22.614Z,77.73
2019-05-25T19:32:51.342Z,77.90
2019-05-25T19:35:20.075Z,77.24
2019-05-25T19:37:48.943Z,77.28
2019-05-25T19:40:17.682Z,77.92
2019-05-25T19:42:49.761Z,78.62
2019-05-25T19:45:17.261Z,79.21
2019-05-25T19:47:46.016Z,80.09
2019-05-25T19:50:15.046Z,81.05
2019-05-25T19:52:43.928Z,81.53
2019-05-25T19:55:12.944Z,82.82
2019-05-25T19:57:45.728Z,83.09
2019-05-25T20:00:15.097Z,83.33
2019-05-25T20:02:43.820Z,84.76
2019-05-25T20:05:16.722Z,85.24
2019-05-25T20:07:43.246Z,84.32
2019-05-25T20:10:12.668Z,83.37
2019-05-25T20:12:41.382Z,83.91
2019-05-25T20:15:10.463Z,82.30
2019-05-25T20:17:39.190Z,81.63
2019-05-25T20:20:08.499Z,82.32
2019-05-25T20:22:37.455Z,84.48
2019-05-25T20:25:07.135Z,85.62
2019-05-25T20:27:38.640Z,87.37
2019-05-25T20:30:08.235Z,87.92
2019-05-25T20:32:36.952Z,88.99
2019-05-25T20:35:08.990Z,89.45
2019-05-25T20:37:37.921Z,89.18
2019-05-25T20:40:08.016Z,89.66
2019-05-25T20:42:36.970Z,90.17
2019-05-25T20:45:08.172Z,90.36
2019-05-25T20:47:37.030Z,90.84
2019-05-25T20:50:07.759Z,91.59
2019-05-25T20:52:36.896Z,92.92
2019-05-25T20:55:08.103Z,93.31
2019-05-25T20:57:36.821Z,93.75
2019-05-25T21:00:09.849Z,93.89
2019-05-25T21:02:38.556Z,94.35
2019-05-25T21:05:08.185Z,94.10
2019-05-25T21:07:36.973Z,93.01
2019-05-25T21:10:09.108Z,92.66
2019-05-25T21:12:37.823Z,92.94
2019-05-25T21:15:08.459Z,93.25
2019-05-25T21:17:37.190Z,93.58
2019-05-25T21:20:07.004Z,93.62
2019-05-25T21:22:35.803Z,93.68
2019-05-25T21:25:09.504Z,93.45
2019-05-25T21:27:38.230Z,93.06
2019-05-25T21:30:09.697Z,92.97
2019-05-25T21:32:38.413Z,93.05
2019-05-25T21:35:08.518Z,93.31
2019-05-25T21:37:37.360Z,93.13
2019-05-25T21:40:09.232Z,92.78
2019-05-25T21:42:37.945Z,92.79
2019-05-25T21:45:07.596Z,92.86
2019-05-25T21:47:36.319Z,92.20
2019-05-25T21:50:07.251Z,91.49
2019-05-25T21:52:36.408Z,89.88
2019-05-25T21:55:06.067Z,89.18
2019-05-25T21:57:34.815Z,89.30
2019-05-25T22:00:06.359Z,89.62
2019-05-25T22:02:35.080Z,90.28
2019-05-25T22:05:05.006Z,92.22
2019-05-25T22:07:33.796Z,92.28
2019-05-25T22:10:02.530Z,91.28
2019-05-25T22:12:31.259Z,90.73
2019-05-25T22:15:00.131Z,89.80
2019-05-25T22:17:28.852Z,89.73
2019-05-25T22:19:57.571Z,90.23
2019-05-25T22:22:26.434Z,90.53
2019-05-25T22:24:55.160Z,90.35
2019-05-25T22:27:23.871Z,90.37
2019-05-25T22:29:52.735Z,90.39
2019-05-25T22:32:21.455Z,90.92
2019-05-25T22:34:50.173Z,90.90
2019-05-25T22:37:18.958Z,90.16
2019-05-25T22:39:47.673Z,89.15
2019-05-25T22:42:16.386Z,88.25
2019-05-25T22:44:45.174Z,86.05
2019-05-25T22:47:13.989Z,84.58
2019-05-25T22:49:42.691Z,82.64
2019-05-25T22:52:11.515Z,81.59
2019-05-25T22:54:40.225Z,81.48
2019-05-25T22:57:08.945Z,81.02
2019-05-25T22:59:37.968Z,80.76
2019-05-25T23:02:06.688Z,80.43
2019-05-25T23:04:35.415Z,80.39
2019-05-25T23:07:04.207Z,79.91
2019-05-25T23:09:34.502Z,80.57
2019-05-25T23:12:03.222Z,80.85
2019-05-25T23:14:31.964Z,81.25
2019-05-25T23:17:00.748Z,81.88
2019-05-25T23:19:29.488Z,82.58
2019-05-25T23:21:58.345Z,83.15
2019-05-25T23:24:27.074Z,83.47
2019-05-25T23:26:55.799Z,84.11
2019-05-25T23:29:24.645Z,84.53
2019-05-25T23:31:53.376Z,84.87
2019-05-25T23:34:22.094Z,85.19
2019-05-25T23:36:50.892Z,86.16
2019-05-25T23:39:19.602Z,86.70
2019-05-25T23:41:48.319Z,86.95
2019-05-25T23:44:17.203Z,87.22
2019-05-25T23:46:45.932Z,87.35
2019-05-25T23:49:14.643Z,87.45
2019-05-25T23:51:43.530Z,87.44
2019-05-25T23:54:12.293Z,87.22
2019-05-25T23:56:41.011Z,86.93
2019-05-25T23:59:09.798Z,86.77
